Nearby METAR Reports

 

LBSF - Sofia (observato, Bulgaria
Distance from station: SE 5km
Updated: 22/06/2018 17:30
Partly cloudy
Partly cloudy
 Wind from SE
Wind: SE 19 km/h
Temperature: 21°C
Dew Point: 16°C
Humidity: 73%
Barometer: 1012 hPa
Clouds: Partly cloudy
Visibility: 10 km
Cloud details: Partly cloudy 2103 m
2018/06/22 14:30 LBSF 221430Z 14010KT 9999 SCT069 21/16 Q1012 NOSIG